Time;durP1;ratioP1;P1;durP2;ratioP2;P2;SDS_P1;SDS_P2;PMS_P1;PMS_P2;Temp;Humidity;BMP_temperature;BMP_pressure;BME280_temperature;BME280_humidity;BME280_pressure;Samples;Min_cycle;Max_cycle;Signal;HPM_P1;HPM_P2
2023/10/06 07:23:44;;;;;;;7.47;3.83;;;;;;;-145.79;89.25;78384.22;5279812;28;20441;-76
2023/10/06 07:26:18;;;;;;;5.88;3.67;;;;;;;-145.79;91.33;78365.16;5259665;28;20040;-76
2023/10/06 07:28:55;;;;;;;8.68;3.97;;;;;;;-145.79;89.02;78377.88;5259015;28;20028;-76
2023/10/06 07:32:18;;;;;;;7.15;3.60;;;;;;;-145.79;88.69;78375.75;5262232;28;20037;-75
2023/10/06 07:35:20;;;;;;;7.82;4.13;;;;;;;-145.79;88.89;78356.66;5258721;28;20120;-76
2023/10/06 07:37:58;;;;;;;8.15;4.13;;;;;;;-145.79;88.58;78343.94;5260004;28;20536;-77
2023/10/06 07:40:51;;;;;;;5.53;4.00;;;;;;;-145.79;88.18;78343.94;5280370;28;20495;-77
2023/10/06 07:43:49;;;;;;;6.65;4.80;;;;;;;-145.79;87.55;78356.66;5278986;28;20154;-76
2023/10/06 07:49:51;;;;;;;8.23;4.05;;;;;;;-145.79;87.57;78339.69;5261178;28;20036;-76
2023/10/06 07:53:04;;;;;;;8.73;4.25;;;;;;;-145.79;87.32;78333.34;5275674;28;20082;-76
2023/10/06 07:56:11;;;;;;;7.13;3.33;;;;;;;-145.79;87.04;78329.09;5268307;28;20032;-77
2023/10/06 07:59:36;;;;;;;6.93;3.53;;;;;;;-145.79;86.52;78320.63;5266439;28;20041;-76
2023/10/06 08:02:07;;;;;;;6.82;3.97;;;;;;;-145.79;87.14;78314.25;5244011;28;20372;-77
2023/10/06 08:04:38;;;;;;;8.43;4.50;;;;;;;-145.79;86.33;78301.53;5278655;28;20032;-77
2023/10/06 08:07:13;;;;;;;6.43;3.78;;;;;;;-145.79;85.60;78293.06;5280161;28;20024;-77
2023/10/06 08:09:45;;;;;;;5.65;3.88;;;;;;;-145.79;85.56;78286.69;5289623;28;20021;-77
2023/10/06 08:12:17;;;;;;;6.70;3.55;;;;;;;-145.79;85.56;78276.09;5275886;28;20052;-78
2023/10/06 08:14:49;;;;;;;5.38;3.75;;;;;;;-145.79;85.93;78263.38;5258516;28;20353;-77
2023/10/06 08:17:21;;;;;;;8.77;4.05;;;;;;;-145.79;85.82;78246.41;5292342;28;20036;-78
2023/10/06 08:19:55;;;;;;;6.13;3.33;;;;;;;-145.79;86.25;78233.69;5269672;28;20025;-79
2023/10/06 08:22:29;;;;;;;9.88;4.53;;;;;;;-145.79;85.31;78240.06;5273676;28;20127;-82
2023/10/06 08:25:05;;;;;;;6.60;4.68;;;;;;;-145.79;84.86;78229.47;5283174;28;20435;-80
2023/10/06 08:27:37;;;;;;;10.10;5.15;;;;;;;-145.79;85.36;78225.22;5300864;28;20028;-80
2023/10/06 08:30:16;;;;;;;8.77;4.30;;;;;;;-145.79;85.46;78212.50;5265947;28;20102;-77
2023/10/06 08:32:48;;;;;;;7.90;4.45;;;;;;;-145.79;85.03;78206.13;5263804;28;20048;-77
2023/10/06 08:35:20;;;;;;;7.10;4.20;;;;;;;-145.79;84.90;78199.78;5265654;28;20021;-78
2023/10/06 08:37:53;;;;;;;9.68;4.20;;;;;;;-145.79;85.16;78199.78;5263227;28;20029;-77
2023/10/06 08:40:26;;;;;;;9.70;4.45;;;;;;;-145.79;85.13;78187.06;5243451;28;20026;-78
2023/10/06 08:42:58;;;;;;;8.77;4.22;;;;;;;-145.79;84.93;78178.56;5244560;28;20105;-78
2023/10/06 08:45:31;;;;;;;8.55;4.88;;;;;;;-145.79;84.68;78174.34;5263958;28;20111;-78
2023/10/06 08:48:09;;;;;;;7.18;4.28;;;;;;;-145.79;85.00;78165.84;5250238;28;20033;-77
2023/10/06 08:50:44;;;;;;;9.88;4.25;;;;;;;-145.79;85.53;78153.13;5243734;28;20045;-78
2023/10/06 08:53:19;;;;;;;8.88;4.25;;;;;;;-145.79;85.00;78144.66;5243582;28;20053;-79
2023/10/06 08:55:50;;;;;;;8.23;4.30;;;;;;;-145.79;84.90;78140.41;5252635;28;20044;-78
2023/10/06 08:58:26;;;;;;;11.02;4.60;;;;;;;-145.79;84.26;78127.69;5263507;28;20108;-78
2023/10/06 09:00:59;;;;;;;9.25;4.57;;;;;;;-145.79;84.53;78119.22;5247289;28;20025;-82
2023/10/06 09:03:30;;;;;;;9.45;4.25;;;;;;;-145.79;84.41;78119.22;5245081;28;20419;-79
2023/10/06 09:06:06;;;;;;;7.38;4.47;;;;;;;-145.79;84.79;78112.84;5244348;28;20041;-81
2023/10/06 09:08:41;;;;;;;;;;;;;;;-145.79;84.89;78102.25;5245078;28;20101;-78
2023/10/06 09:11:13;;;;;;;9.27;4.53;;;;;;;-145.79;84.17;78114.97;5254812;28;19935;-76
2023/10/06 09:13:45;;;;;;;6.65;4.25;;;;;;;-145.79;84.14;78106.50;5250018;28;20021;-77
2023/10/06 09:16:18;;;;;;;7.95;4.45;;;;;;;-145.79;84.21;78106.50;5247790;28;20022;-77
2023/10/06 09:19:01;;;;;;;6.78;3.72;;;;;;;-145.79;84.16;78093.78;5255439;28;20087;-80
2023/10/06 09:21:33;;;;;;;6.20;3.97;;;;;;;-145.79;84.04;78091.66;5254020;28;20511;-79
2023/10/06 09:24:19;;;;;;;7.63;4.95;;;;;;;-145.79;84.07;78081.06;5244767;28;20104;-79
2023/10/06 09:26:50;;;;;;;8.50;4.80;;;;;;;-145.79;83.94;78074.69;5243309;28;20480;-80
2023/10/06 09:29:32;;;;;;;8.10;4.60;;;;;;;-145.79;84.16;78053.50;5248373;28;20086;-79
2023/10/06 09:35:20;;;;;;;8.32;4.28;;;;;;;-145.79;83.52;78028.06;5263331;28;20486;-79
2023/10/06 09:37:54;;;;;;;8.40;5.22;;;;;;;-145.79;83.31;78019.56;5256115;28;20025;-78
2023/10/06 09:40:32;;;;;;;21.98;19.75;;;;;;;-145.79;83.59;78015.34;5257925;28;20037;-80
2023/10/06 09:43:05;;;;;;;10.48;4.80;;;;;;;-145.79;83.02;78000.50;5265105;28;20021;-80
2023/10/06 09:45:37;;;;;;;6.25;4.00;;;;;;;-145.79;83.07;78002.63;5265032;28;20040;-78
2023/10/06 09:48:15;;;;;;;9.23;4.05;;;;;;;-145.79;83.25;77998.38;5265217;28;20025;-78
2023/10/06 09:50:50;;;;;;;9.40;4.00;;;;;;;-145.79;83.71;78000.50;5263781;28;20037;-78
2023/10/06 09:53:22;;;;;;;11.52;4.70;;;;;;;-145.79;83.22;77983.53;5260149;28;20047;-80
2023/10/06 09:55:53;;;;;;;8.75;4.05;;;;;;;-145.79;82.33;77985.66;5262452;28;20052;-78
2023/10/06 09:58:28;;;;;;;9.30;4.28;;;;;;;-145.79;82.38;77979.28;5251413;28;20420;-78
2023/10/06 10:01:01;;;;;;;6.83;3.90;;;;;;;-145.79;82.44;77977.19;5242975;28;20437;-78
2023/10/06 10:03:37;;;;;;;9.25;5.88;;;;;;;-145.79;82.75;77979.28;5250167;28;20322;-81
2023/10/06 10:06:10;;;;;;;11.95;4.80;;;;;;;-145.79;82.56;77979.28;5267605;28;20044;-81
2023/10/06 10:08:41;;;;;;;11.00;4.10;;;;;;;-145.79;82.88;77975.06;5266149;28;20024;-80
2023/10/06 10:11:28;;;;;;;6.90;4.05;;;;;;;-145.79;83.15;77966.56;5257225;28;20029;-79
2023/10/06 10:14:03;;;;;;;7.05;3.88;;;;;;;-145.79;83.04;77966.56;5243113;28;20029;-80
2023/10/06 10:16:49;;;;;;;6.20;3.97;;;;;;;-145.79;83.17;77966.56;5243714;28;20027;-85
2023/10/06 10:19:22;;;;;;;7.25;3.20;;;;;;;-145.79;83.12;77970.81;5254278;28;20295;-71
2023/10/06 10:21:58;;;;;;;5.53;3.28;;;;;;;-145.79;83.54;77958.09;5248063;28;20556;-80
2023/10/06 10:24:34;;;;;;;7.22;3.42;;;;;;;-145.79;82.96;77953.84;5242332;28;20021;-82
2023/10/06 10:27:13;;;;;;;12.15;8.45;;;;;;;-145.79;83.12;77941.13;5255823;28;20030;-77
2023/10/06 10:29:44;;;;;;;8.40;4.07;;;;;;;-145.79;82.46;77936.91;5244496;28;20388;-80
2023/10/06 10:32:17;;;;;;;7.10;3.70;;;;;;;-145.79;82.15;77932.66;5241758;28;20029;-78
2023/10/06 10:35:16;;;;;;;7.85;3.65;;;;;;;-145.79;82.69;77928.41;5243055;28;20064;-79
2023/10/06 10:38:06;;;;;;;6.75;3.63;;;;;;;-145.79;82.51;77934.78;5248051;28;20025;-78
2023/10/06 10:40:46;;;;;;;7.97;3.80;;;;;;;-145.79;83.00;77924.19;5256573;28;20104;-80
2023/10/06 10:43:20;;;;;;;9.27;5.43;;;;;;;-145.79;82.75;77924.19;5246876;28;20053;-78
2023/10/06 10:45:57;;;;;;;9.45;3.63;;;;;;;-145.79;83.00;77915.69;5262424;28;20033;-77
2023/10/06 10:48:36;;;;;;;8.43;4.55;;;;;;;-145.79;82.97;77894.50;5262484;28;20051;-78
2023/10/06 10:54:06;;;;;;;13.75;8.98;;;;;;;-145.79;81.95;77864.81;6004804;22;20050;-80
2023/10/06 10:56:38;;;;;;;8.63;4.13;;;;;;;-145.79;80.35;77871.19;5196232;28;20030;-78
2023/10/06 10:59:11;;;;;;;8.20;4.38;;;;;;;-145.79;80.58;77860.56;5179500;28;20478;-78
2023/10/06 11:01:44;;;;;;;10.32;4.80;;;;;;;-145.79;80.02;77866.94;5199612;28;20057;-78
2023/10/06 11:04:21;;;;;;;8.18;4.40;;;;;;;-145.79;79.77;77860.56;5199874;28;20097;-80
2023/10/06 11:07:04;;;;;;;6.05;3.88;;;;;;;-145.79;80.54;77860.56;5198727;28;20078;-80
2023/10/06 11:09:47;;;;;;;8.98;4.05;;;;;;;-145.79;80.35;77847.84;5199807;28;20041;-79
2023/10/06 11:12:25;;;;;;;4.82;3.67;;;;;;;-145.79;80.22;77856.34;5200887;28;20081;-80
2023/10/06 11:15:16;;;;;;;7.93;4.20;;;;;;;-145.79;80.45;77847.84;5198138;28;20042;-80
2023/10/06 11:17:49;;;;;;;8.60;4.25;;;;;;;-145.79;79.65;77849.97;5200286;28;20090;-80
2023/10/06 11:20:25;;;;;;;6.30;4.00;;;;;;;-145.79;79.48;77856.34;5199725;28;20496;-81
2023/10/06 11:23:00;;;;;;;8.85;4.38;;;;;;;-145.79;79.74;77860.56;5200587;28;20034;-81
2023/10/06 11:25:35;;;;;;;6.47;4.10;;;;;;;-145.79;80.06;77866.94;5199556;28;20053;-82
2023/10/06 11:32:29;;;;;;;7.45;3.90;;;;;;;-145.79;80.66;77841.50;5200836;28;20486;-81
2023/10/06 11:35:00;;;;;;;6.88;4.00;;;;;;;-145.79;80.82;77843.63;5219063;28;20038;-81
2023/10/06 11:37:32;;;;;;;6.93;4.07;;;;;;;-145.79;80.46;77830.91;5220404;28;20083;-80
2023/10/06 11:40:05;;;;;;;6.80;4.15;;;;;;;-145.79;79.94;77818.19;5221138;28;20136;-79
2023/10/06 11:42:38;;;;;;;7.03;4.72;;;;;;;-145.79;79.79;77811.81;5221913;28;20026;-79
2023/10/06 11:45:27;;;;;;;6.93;4.13;;;;;;;-145.79;79.64;77796.97;5221263;28;20018;-81
2023/10/06 11:47:59;;;;;;;14.27;5.03;;;;;;;-145.79;79.83;77780.03;5218884;28;20022;-79
2023/10/06 11:50:33;;;;;;;11.02;5.68;;;;;;;-145.79;79.44;77780.03;5225974;28;20354;-79
2023/10/06 11:53:05;;;;;;;10.02;5.75;;;;;;;-145.79;80.02;77771.53;5216992;28;20073;-78
2023/10/06 11:55:37;;;;;;;7.13;4.03;;;;;;;-145.79;79.45;77756.72;5223745;28;20483;-76
2023/10/06 11:58:09;;;;;;;10.43;4.03;;;;;;;-145.79;78.99;77750.34;5219826;28;20026;-76
2023/10/06 12:00:43;;;;;;;9.02;3.88;;;;;;;-145.79;78.97;77750.34;5216030;28;20401;-72
2023/10/06 12:03:32;;;;;;;9.20;6.30;;;;;;;-145.79;79.71;77727.03;5215146;28;20374;-73
2023/10/06 12:06:04;;;;;;;7.82;3.60;;;;;;;-145.79;79.70;77724.91;5220664;28;20354;-74
2023/10/06 12:08:45;;;;;;;8.32;3.65;;;;;;;-145.79;79.15;77712.19;5221148;28;20033;-74
2023/10/06 12:11:16;;;;;;;4.90;3.00;;;;;;;-145.79;78.33;77699.47;5224428;28;20412;-73
2023/10/06 12:13:48;;;;;;;7.68;3.80;;;;;;;-145.79;76.03;77684.63;5224039;28;20033;-74
2023/10/06 12:16:19;;;;;;;9.15;4.00;;;;;;;-145.79;74.78;77657.06;5223425;28;20030;-74
2023/10/06 12:18:51;;;;;;;9.95;4.13;;;;;;;-145.79;74.06;77657.06;5221233;28;20048;-73
2023/10/06 12:21:22;;;;;;;5.78;3.53;;;;;;;-145.79;74.19;77661.31;5224003;28;20120;-71
2023/10/06 12:23:57;;;;;;;7.90;6.03;;;;;;;-145.79;74.50;77650.72;5225174;28;20052;-72
2023/10/06 12:26:32;;;;;;;14.43;5.20;;;;;;;-145.79;74.29;77638.00;5231409;28;20117;-71
2023/10/06 12:29:03;;;;;;;4.53;3.25;;;;;;;-145.79;74.10;77623.16;5226554;28;20080;-74
2023/10/06 12:31:35;;;;;;;6.18;4.43;;;;;;;-145.79;74.17;77601.97;5223051;28;20108;-72
2023/10/06 12:34:09;;;;;;;11.02;4.00;;;;;;;-145.79;73.61;77595.59;5223590;28;20475;-73
2023/10/06 12:36:42;;;;;;;6.75;3.85;;;;;;;-145.79;72.21;77589.25;5222851;28;20029;-73
2023/10/06 12:39:21;;;;;;;6.47;3.42;;;;;;;-145.79;71.84;77568.03;5224258;28;20388;-73
2023/10/06 12:41:52;;;;;;;11.45;9.98;;;;;;;-145.79;71.96;77555.31;5243670;28;20445;-74
2023/10/06 12:44:27;;;;;;;10.13;4.30;;;;;;;-145.79;71.16;77557.44;5237743;28;20067;-73
2023/10/06 12:47:03;;;;;;;8.32;3.85;;;;;;;-145.79;70.85;77540.50;5221829;28;20065;-73
2023/10/06 12:49:36;;;;;;;9.20;3.80;;;;;;;-145.79;70.86;77542.59;5216051;28;20436;-73
2023/10/06 12:52:08;;;;;;;9.88;4.32;;;;;;;-145.79;68.56;77544.72;5227868;28;20071;-73
2023/10/06 12:54:39;;;;;;;6.35;3.42;;;;;;;-145.79;68.49;77536.25;5222682;28;20112;-74
2023/10/06 12:57:11;;;;;;;6.90;3.40;;;;;;;-145.79;68.36;77536.25;5222606;28;20113;-74
2023/10/06 12:59:42;;;;;;;7.18;3.95;;;;;;;-145.79;67.20;77542.59;5222201;28;20550;-74
2023/10/06 13:02:14;;;;;;;6.25;3.03;;;;;;;-145.79;67.69;77532.00;5230504;28;20084;-74
2023/10/06 13:04:45;;;;;;;4.93;3.17;;;;;;;-145.79;68.22;77542.59;5210200;28;20469;-74
2023/10/06 13:07:19;;;;;;;9.90;5.50;;;;;;;-145.79;68.77;77542.59;5210071;28;20030;-74
2023/10/06 13:09:53;;;;;;;6.70;4.13;;;;;;;-145.79;69.04;77551.09;5214622;28;20425;-79
2023/10/06 13:12:28;;;;;;;6.55;4.25;;;;;;;-145.79;69.23;77529.88;5221316;28;20033;-74
2023/10/06 13:15:01;;;;;;;8.00;3.47;;;;;;;-145.79;68.55;77534.13;5202317;28;20038;-74
2023/10/06 13:17:33;;;;;;;5.53;2.90;;;;;;;-145.79;68.78;77538.38;5202286;28;20026;-73
2023/10/06 13:20:07;;;;;;;7.10;3.72;;;;;;;-145.79;68.61;77529.88;5219418;28;20026;-73
2023/10/06 13:22:44;;;;;;;6.85;3.47;;;;;;;-145.79;69.14;77519.28;5220960;28;20528;-73
2023/10/06 13:25:17;;;;;;;6.25;3.10;;;;;;;-145.79;69.79;77512.94;5222360;28;20052;-73
2023/10/06 13:27:51;;;;;;;5.78;3.70;;;;;;;-145.79;69.31;77508.69;5221185;28;20052;-73
2023/10/06 13:30:24;;;;;;;6.45;3.60;;;;;;;-145.79;69.83;77500.22;5222589;28;20072;-74
2023/10/06 13:32:57;;;;;;;9.80;6.47;;;;;;;-145.79;69.68;77479.03;5222025;28;20505;-75
2023/10/06 13:35:31;;;;;;;6.85;3.50;;;;;;;-145.79;68.61;77483.25;5221466;28;20022;-76
2023/10/06 13:38:08;;;;;;;9.10;3.95;;;;;;;-145.79;67.21;77487.50;5223480;28;20036;-74
2023/10/06 13:40:42;;;;;;;6.43;3.47;;;;;;;-145.79;68.63;77472.66;5221397;28;20026;-74
2023/10/06 13:43:13;;;;;;;7.10;3.72;;;;;;;-145.79;68.35;77485.38;5222377;28;20042;-75
2023/10/06 13:45:45;;;;;;;6.50;3.58;;;;;;;-145.79;69.13;77479.03;5219989;28;20487;-75
2023/10/06 13:48:22;;;;;;;6.95;3.83;;;;;;;-145.79;68.90;77468.41;5221443;28;20028;-76
2023/10/06 13:50:58;;;;;;;7.43;3.55;;;;;;;-145.79;68.24;77470.53;5222036;28;20080;-76
2023/10/06 13:53:30;;;;;;;13.90;8.80;;;;;;;-145.79;67.91;77470.53;5222574;28;20034;-73
2023/10/06 13:56:01;;;;;;;9.15;4.13;;;;;;;-145.79;67.07;77464.19;5219315;28;20096;-73
2023/10/06 13:58:36;;;;;;;7.63;3.28;;;;;;;-145.79;67.11;77466.31;5218511;28;20029;-74
2023/10/06 14:01:11;;;;;;;6.88;3.00;;;;;;;-145.79;67.02;77462.06;5237256;28;20495;-76
2023/10/06 14:03:43;;;;;;;5.07;3.28;;;;;;;-145.79;66.37;77457.81;5225063;28;20493;-73
2023/10/06 14:06:14;;;;;;;8.65;3.22;;;;;;;-145.79;66.41;77466.31;5234736;28;20025;-80
2023/10/06 14:08:45;;;;;;;5.78;3.55;;;;;;;-145.79;66.17;77464.19;5242614;28;20025;-75
2023/10/06 14:11:17;;;;;;;6.57;3.75;;;;;;;-145.79;66.04;77459.94;5221103;28;20038;-81
2023/10/06 14:13:49;;;;;;;5.72;4.00;;;;;;;-145.79;65.57;77453.59;5221400;28;20022;-76
2023/10/06 14:16:25;;;;;;;8.23;3.90;;;;;;;-145.79;65.10;77451.47;5211403;28;20440;-76
2023/10/06 14:18:56;;;;;;;6.18;4.00;;;;;;;-145.79;65.93;77451.47;5219942;28;20487;-76
2023/10/06 14:21:28;;;;;;;6.82;3.80;;;;;;;-145.79;66.44;77451.47;5220461;28;20029;-74
2023/10/06 14:24:02;;;;;;;12.00;4.65;;;;;;;-145.79;66.11;77457.81;5224208;28;20080;-74
2023/10/06 14:26:34;;;;;;;6.35;3.47;;;;;;;-145.79;66.12;77449.34;5230866;28;20033;-75
2023/10/06 14:29:06;;;;;;;6.90;3.10;;;;;;;-145.79;66.29;77438.75;5201237;28;20102;-78
2023/10/06 14:31:47;;;;;;;6.68;3.17;;;;;;;-145.79;66.26;77442.97;5198950;28;20043;-76
2023/10/06 14:34:36;;;;;;;5.95;3.13;;;;;;;-145.79;65.86;77436.63;5200727;28;20046;-77
2023/10/06 14:37:13;;;;;;;6.75;4.85;;;;;;;-145.79;65.91;77432.38;5219797;28;20017;-74
2023/10/06 14:48:15;;;;;;;5.25;2.95;;;;;;;-145.79;65.78;77423.91;5218964;28;20041;-77
2023/10/06 14:50:55;;;;;;;7.80;3.13;;;;;;;-145.79;65.63;77421.78;5219882;28;20109;-80
2023/10/06 14:53:30;;;;;;;6.40;3.53;;;;;;;-145.79;65.63;77419.66;5220220;28;20061;-76
2023/10/06 14:56:01;;;;;;;9.30;4.07;;;;;;;-145.79;65.44;77411.19;5220651;28;20033;-76
2023/10/06 14:58:32;;;;;;;4.53;3.25;;;;;;;-145.79;64.61;77411.19;5219313;28;20030;-77
2023/10/06 15:01:12;;;;;;;6.38;3.15;;;;;;;-145.79;64.87;77415.44;5219956;28;20125;-76
2023/10/06 15:03:43;;;;;;;10.27;3.80;;;;;;;-145.79;64.19;77402.72;5221026;28;20102;-80
2023/10/06 15:06:14;;;;;;;6.55;3.72;;;;;;;-145.79;64.03;77404.84;5235203;28;20061;-74
2023/10/06 15:08:49;;;;;;;4.22;3.50;;;;;;;-145.79;64.38;77406.94;5219039;28;20420;-78
2023/10/06 15:11:21;;;;;;;7.13;3.90;;;;;;;-145.79;64.31;77398.47;5219454;28;20052;-77
2023/10/06 15:13:54;;;;;;;4.57;3.13;;;;;;;-145.79;64.14;77415.44;5223289;28;20160;-77
2023/10/06 15:16:26;;;;;;;8.38;3.35;;;;;;;-145.79;64.04;77394.22;5224743;28;20032;-78
2023/10/06 15:18:57;;;;;;;6.88;3.72;;;;;;;-145.79;63.98;77409.06;5220334;28;20018;-78
2023/10/06 15:21:28;;;;;;;9.05;4.75;;;;;;;-145.79;63.83;77415.44;5220951;28;20066;-78
2023/10/06 15:24:00;;;;;;;9.50;4.85;;;;;;;-145.79;63.87;77419.66;5221018;28;20100;-82
2023/10/06 15:26:32;;;;;;;9.40;3.40;;;;;;;-145.79;64.09;77413.31;5221276;28;20469;-79
2023/10/06 15:29:03;;;;;;;6.53;3.58;;;;;;;-145.79;64.55;77419.66;5220665;28;20046;-68
2023/10/06 15:31:35;;;;;;;7.43;3.20;;;;;;;-145.79;65.01;77434.50;5220137;28;20062;-71
2023/10/06 15:34:07;;;;;;;9.77;4.00;;;;;;;-145.79;64.89;77436.63;5219851;28;20053;-72
2023/10/06 15:36:40;;;;;;;7.93;4.15;;;;;;;-145.79;65.00;77440.88;5219708;28;20033;-73
2023/10/06 15:39:17;;;;;;;9.18;3.80;;;;;;;-145.79;65.63;77436.63;5220514;28;20125;-78
2023/10/06 15:41:50;;;;;;;5.90;3.28;;;;;;;-145.79;65.12;77453.59;5223260;28;20430;-75
2023/10/06 15:44:26;;;;;;;12.00;4.18;;;;;;;-145.79;65.22;77455.69;5222133;28;20080;-80
2023/10/06 15:47:01;;;;;;;7.45;3.30;;;;;;;-145.79;66.26;77464.19;5223629;28;20057;-74
2023/10/06 15:49:36;;;;;;;5.72;3.47;;;;;;;-145.79;66.23;77470.53;5222731;28;20026;-73
2023/10/06 15:52:07;;;;;;;6.00;3.70;;;;;;;-145.79;65.97;77489.63;5222613;28;20029;-74
2023/10/06 15:54:41;;;;;;;7.72;3.80;;;;;;;-145.79;66.52;77491.75;5222011;28;20520;-73
2023/10/06 15:57:12;;;;;;;5.53;4.22;;;;;;;-145.79;66.77;77491.75;5222044;28;20092;-73
2023/10/06 15:59:43;;;;;;;5.68;3.33;;;;;;;-145.79;66.45;77500.22;5209119;28;20453;-73
2023/10/06 16:02:19;;;;;;;7.50;3.90;;;;;;;-145.79;67.56;77510.81;5221042;28;20022;-75
2023/10/06 16:04:51;;;;;;;5.53;4.05;;;;;;;-145.79;67.38;77512.94;5222045;28;20026;-77
2023/10/06 16:07:22;;;;;;;10.48;4.03;;;;;;;-145.79;67.25;77508.69;5221763;28;20060;-72
2023/10/06 16:09:54;;;;;;;8.15;3.83;;;;;;;-145.79;67.44;77510.81;5223099;28;20018;-80
2023/10/06 16:15:06;;;;;;;7.28;3.72;;;;;;;-145.79;67.61;77500.22;5241080;22;20290;-77
2023/10/06 16:17:40;;;;;;;7.22;3.40;;;;;;;-145.79;67.52;77502.34;5243207;28;20025;-81
2023/10/06 16:20:16;;;;;;;6.28;3.58;;;;;;;-145.79;67.53;77508.69;5244631;28;20091;-80
2023/10/06 16:22:49;;;;;;;4.95;3.70;;;;;;;-145.79;67.78;77506.56;5243435;28;20064;-81
2023/10/06 16:25:23;;;;;;;9.90;5.72;;;;;;;-145.79;67.72;77506.56;5244365;28;20056;-80
2023/10/06 16:27:57;;;;;;;7.82;3.78;;;;;;;-145.79;67.91;77512.94;5244794;28;20034;-80
2023/10/06 16:30:30;;;;;;;7.93;4.35;;;;;;;-145.79;68.09;77510.81;5243803;28;20461;-81
2023/10/06 16:33:02;;;;;;;7.25;5.15;;;;;;;-145.79;68.53;77510.81;5243557;28;20124;-80
2023/10/06 16:35:41;;;;;;;7.20;3.65;;;;;;;-145.79;68.61;77512.94;5241235;28;20508;-78
2023/10/06 16:38:12;;;;;;;7.00;4.50;;;;;;;-145.79;68.63;77521.41;5239406;28;20466;-81
2023/10/06 16:40:44;;;;;;;5.20;3.35;;;;;;;-145.79;69.15;77523.53;5239284;28;20045;-80
2023/10/06 16:43:15;;;;;;;5.70;3.78;;;;;;;-145.79;69.48;77529.88;5240947;28;20033;-81
2023/10/06 16:45:46;;;;;;;21.13;18.33;;;;;;;-145.79;69.42;77521.41;5240098;28;20496;-81
2023/10/06 16:48:19;;;;;;;12.40;4.25;;;;;;;-145.79;69.67;77525.66;5241992;28;20021;-81
2023/10/06 16:50:56;;;;;;;6.90;3.70;;;;;;;-145.79;69.63;77525.66;5241879;28;20420;-79
2023/10/06 16:53:28;;;;;;;12.65;4.88;;;;;;;-145.79;70.14;77525.66;5241912;28;20041;-78
